Aérodrome :
LOGIN :

S'inscrire | Disclaimer

   EN    FR    IT 

 










Légende :    VFR   VFR Marginal   IFR   IFR Intensif   IFR Très Intensif
Visi : 
Plafond : 
>= 8 km
>= 3000ft
5 à 8 km
1000 à 3000 ft
1500m à 5 km
500 à 1000 ft
800 à 1500m
200 à 500 ft
< 800m
< 200 ft
Symboles :   Orages  Brouillard  Fortes neiges  Fortes précipitations  Vent > 20 kt
SIGMETs :   Divers  Orages  Givrage  Turbulence  Onde Orograph.  Cendres Volcan.







- Altitude de l'aérodrome : 256 ft
- Code IATA : CFR
- Voir les cartes d'approche


LFRK - Caen

DERNIER METAR :
  • 201400Z AUTO 20018KT CAVOK 25/15 Q1013 TEMPO 20015G25KT

METARs EXPIRÉS :
  • 201330Z AUTO 20018KT 9999 SCT039 25/15 Q1014 TEMPO 20015G25KT
  • 201300Z AUTO 20017KT 9999 BKN038 24/15 Q1014 TEMPO 20015G25KT
  • 201230Z AUTO 21016KT 9999 BKN037 BKN240 24/15 Q1014 TEMPO 20015G25KT
  • 201200Z AUTO 21018KT CAVOK 24/14 Q1015 TEMPO 20015G25KT
  • 201130Z AUTO 20017KT CAVOK 24/14 Q1015 TEMPO 20015G25KT

TAF TAF LFRK
Valide du 20 à 12h jusqu'au 20 à 21h UTC


201100Z 2012/2021 20014KT 9999 SCT020
TEMPO 2012/2021 20015G25KT
Météo : +33 2 31 26 68 11
Pas de NOTAMs connus pour ce terrain.



MET'MAP, la Météo Aéronautique d'un coup d'oeil ! - Copyright ORBIFLY Décembre 2007 - Disclaimer

ORBIFLY MET'MAP TEAM :

Programmation & Développement : Alexandra Zaïnal
Conception & Développement : Baudouin d'Aumeries
Co-Programmation & Développement : Marc-Olivier Méhu
Soutien technique & logistique : Manuel Goepfert

Contact : metmap@orbifly.com




SOURCES & CREDITS :

   NOAA